Time;durP1;ratioP1;P1;durP2;ratioP2;P2;SDS_P1;SDS_P2;PMS_P1;PMS_P2;Temp;Humidity;BMP_temperature;BMP_pressure;BME280_temperature;BME280_humidity;BME280_pressure;Samples;Min_cycle;Max_cycle;Signal;HPM_P1;HPM_P2
2023/10/19 00:00:22;;;;;;;10.40;6.40;;;;;;;3.93;81.95;96061.69;109068;1263;22540;-75
2023/10/19 00:03:13;;;;;;;11.80;6.80;;;;;;;3.92;81.96;96056.21;109109;1267;22519;-75
2023/10/19 00:05:47;;;;;;;9.50;6.10;;;;;;;3.92;82.03;96049.97;109068;1267;22455;-75
2023/10/19 00:08:20;;;;;;;8.30;6.20;;;;;;;3.95;82.06;96046.72;109102;1264;22941;-75
2023/10/19 00:11:02;;;;;;;10.50;6.40;;;;;;;3.96;82.22;96047.98;109076;1273;23702;-75
2023/10/19 00:13:35;;;;;;;9.60;6.30;;;;;;;3.96;82.24;96048.05;109100;1267;22568;-75
2023/10/19 00:16:16;;;;;;;11.60;6.30;;;;;;;3.97;82.19;96049.47;109068;1273;24209;-75
2023/10/19 00:18:48;;;;;;;6.70;4.60;;;;;;;3.97;82.12;96047.10;109035;1272;27019;-75
2023/10/19 00:21:23;;;;;;;7.20;5.40;;;;;;;4.00;82.32;96038.88;109110;1273;22569;-75
2023/10/19 00:23:57;;;;;;;6.20;4.40;;;;;;;3.98;82.23;96040.87;109084;1267;24200;-75
2023/10/19 00:26:30;;;;;;;7.30;4.80;;;;;;;3.93;82.11;96040.92;109133;1273;22538;-75
2023/10/19 00:29:15;;;;;;;8.40;5.50;;;;;;;3.84;82.11;96037.08;109087;1267;22497;-75
2023/10/19 00:31:48;;;;;;;7.90;4.90;;;;;;;3.77;82.24;96026.36;109031;1273;22510;-75
2023/10/19 00:34:21;;;;;;;9.90;6.00;;;;;;;3.74;82.40;96025.02;109114;1273;25407;-76
2023/10/19 00:36:52;;;;;;;10.40;5.90;;;;;;;3.72;82.51;96021.13;109091;1273;22528;-75
2023/10/19 00:39:27;;;;;;;9.80;5.30;;;;;;;3.70;82.58;96019.59;109042;1266;22536;-75
2023/10/19 00:42:02;;;;;;;8.90;5.10;;;;;;;3.68;82.56;96015.86;109122;1273;22625;-76
2023/10/19 00:44:37;;;;;;;6.40;4.60;;;;;;;3.66;82.69;96018.71;109038;1273;22565;-75
2023/10/19 00:47:13;;;;;;;6.90;5.00;;;;;;;3.66;82.67;96016.34;109112;1273;23403;-76
2023/10/19 00:49:44;;;;;;;8.10;5.70;;;;;;;3.65;82.69;96012.18;109006;1269;22480;-76
2023/10/19 00:52:19;;;;;;;9.00;5.50;;;;;;;3.62;82.64;96006.77;109096;1273;22590;-75
2023/10/19 00:54:58;;;;;;;8.50;5.90;;;;;;;3.59;82.74;96000.78;109108;1269;22531;-76
2023/10/19 00:57:34;;;;;;;8.00;6.00;;;;;;;3.58;82.76;95997.10;109130;1273;24186;-76
2023/10/19 01:00:12;;;;;;;9.00;5.30;;;;;;;3.55;82.76;95988.95;109067;1266;25412;-76
2023/10/19 01:02:45;;;;;;;9.20;6.00;;;;;;;3.49;82.72;95975.77;109086;1270;24683;-76
2023/10/19 01:05:22;;;;;;;8.90;6.00;;;;;;;3.44;82.77;95974.33;109087;1269;22527;-75
2023/10/19 01:07:57;;;;;;;9.80;6.60;;;;;;;3.38;82.71;95967.66;109101;1273;22555;-76
2023/10/19 01:10:32;;;;;;;9.10;5.70;;;;;;;3.33;82.88;95963.42;109076;1273;22539;-76
2023/10/19 01:13:05;;;;;;;9.80;5.60;;;;;;;3.31;82.96;95963.62;109090;1267;22575;-76
2023/10/19 01:15:37;;;;;;;10.20;5.20;;;;;;;3.38;83.08;95963.95;109059;1273;22521;-75
2023/10/19 01:18:13;;;;;;;6.80;4.30;;;;;;;3.50;83.28;95965.27;109066;1273;22524;-76
2023/10/19 01:20:50;;;;;;;6.90;4.40;;;;;;;3.57;83.23;95957.27;109042;1273;22542;-76
2023/10/19 01:23:25;;;;;;;7.00;4.60;;;;;;;3.59;83.18;95952.81;109077;1272;24297;-76
2023/10/19 01:26:07;;;;;;;6.80;4.40;;;;;;;3.62;83.24;95943.66;109117;1273;26061;-76
2023/10/19 01:28:43;;;;;;;7.50;5.10;;;;;;;3.65;83.21;95939.74;109075;1273;22591;-74
2023/10/19 01:31:16;;;;;;;6.90;5.10;;;;;;;3.64;83.23;95937.59;109101;1266;22517;-76
2023/10/19 01:36:37;;;;;;;6.10;3.70;;;;;;;3.76;83.39;95929.56;109085;1264;23846;-76
2023/10/19 01:39:10;;;;;;;8.90;5.20;;;;;;;3.92;83.53;95925.48;109085;1273;24212;-75
2023/10/19 01:41:42;;;;;;;7.10;5.10;;;;;;;3.93;83.18;95919.77;109095;1273;25316;-75
2023/10/19 01:44:15;;;;;;;10.00;4.50;;;;;;;3.89;82.98;95916.65;109090;1266;22515;-76
2023/10/19 01:46:48;;;;;;;8.00;4.90;;;;;;;3.91;83.02;95913.73;109082;1273;22558;-76
2023/10/19 01:49:26;;;;;;;8.10;5.20;;;;;;;3.91;82.96;95905.74;109120;1266;22653;-76
2023/10/19 01:52:00;;;;;;;7.40;4.70;;;;;;;3.88;82.75;95901.96;109086;1266;24921;-76
2023/10/19 01:54:31;;;;;;;6.40;4.00;;;;;;;3.83;82.60;95899.69;109077;1265;25419;-75
2023/10/19 01:57:05;;;;;;;6.10;4.70;;;;;;;3.83;82.72;95895.44;109074;1266;22521;-75
2023/10/19 01:59:36;;;;;;;6.50;4.20;;;;;;;3.85;82.64;95892.62;109123;1266;22543;-76
2023/10/19 02:02:09;;;;;;;8.50;5.10;;;;;;;3.84;82.50;95892.04;109105;1273;22539;-75
2023/10/19 02:04:41;;;;;;;9.30;5.30;;;;;;;3.82;82.47;95889.55;109121;1272;22518;-76
2023/10/19 02:07:17;;;;;;;7.60;5.10;;;;;;;3.81;82.36;95886.36;109106;1272;22535;-75
2023/10/19 02:09:48;;;;;;;8.30;4.80;;;;;;;3.81;82.29;95882.01;109071;1272;27441;-76
2023/10/19 02:12:20;;;;;;;7.40;4.80;;;;;;;3.79;82.08;95884.13;109099;1273;25894;-75
2023/10/19 02:14:53;;;;;;;9.00;5.10;;;;;;;3.77;82.06;95880.13;109077;1273;22565;-75
2023/10/19 02:17:25;;;;;;;7.70;5.40;;;;;;;3.77;82.06;95876.61;109101;1272;22578;-75
2023/10/19 02:19:56;;;;;;;6.60;4.00;;;;;;;3.75;81.98;95871.52;109075;1270;25306;-75
2023/10/19 02:22:28;;;;;;;8.10;5.00;;;;;;;3.77;82.12;95866.76;109062;1266;22541;-75
2023/10/19 02:24:59;;;;;;;7.60;5.30;;;;;;;3.80;81.88;95856.55;109112;1270;22533;-75
2023/10/19 02:27:31;;;;;;;9.00;5.50;;;;;;;3.78;81.73;95852.39;109054;1273;22507;-75
2023/10/19 02:30:05;;;;;;;8.40;4.80;;;;;;;3.75;81.58;95852.33;109044;1273;22566;-76
2023/10/19 02:32:36;;;;;;;10.20;4.90;;;;;;;3.71;81.38;95850.27;109140;1251;22524;-76
2023/10/19 02:35:09;;;;;;;6.70;4.00;;;;;;;3.69;81.39;95852.56;109071;1266;24199;-75
2023/10/19 02:37:40;;;;;;;8.50;5.10;;;;;;;3.68;81.47;95847.69;109129;1272;22737;-75
2023/10/19 02:40:19;;;;;;;8.10;4.70;;;;;;;3.64;81.35;95839.05;109066;1273;23347;-75
2023/10/19 02:42:53;;;;;;;8.70;5.00;;;;;;;3.59;81.25;95838.55;109111;1267;22560;-76
2023/10/19 02:45:24;;;;;;;7.60;4.90;;;;;;;3.54;81.33;95829.94;109091;1273;22537;-75
2023/10/19 02:47:56;;;;;;;9.10;5.90;;;;;;;3.50;81.33;95833.52;109085;1266;22574;-75
2023/10/19 02:50:29;;;;;;;7.10;4.60;;;;;;;3.50;81.46;95831.20;109054;1272;23878;-76
2023/10/19 02:53:03;;;;;;;7.80;4.50;;;;;;;3.55;81.43;95828.48;109102;1266;24238;-75
2023/10/19 02:55:35;;;;;;;8.10;4.90;;;;;;;3.59;81.41;95821.52;109088;1272;22534;-76
2023/10/19 02:58:07;;;;;;;10.20;5.50;;;;;;;3.63;81.18;95819.95;109124;1272;25227;-76
2023/10/19 03:00:40;;;;;;;9.00;5.40;;;;;;;3.63;81.13;95813.89;109131;1270;24174;-75
2023/10/19 03:03:11;;;;;;;9.00;5.50;;;;;;;3.64;80.90;95811.52;109110;1273;22508;-75
2023/10/19 03:05:46;;;;;;;8.60;4.60;;;;;;;3.60;80.94;95811.30;109066;1273;22571;-75
2023/10/19 03:08:19;;;;;;;9.00;5.40;;;;;;;3.53;80.66;95806.39;109125;1265;22517;-75
2023/10/19 03:11:03;;;;;;;8.50;5.10;;;;;;;3.48;80.68;95804.52;109129;1273;25450;-76
2023/10/19 03:13:35;;;;;;;6.90;4.80;;;;;;;3.42;80.72;95803.08;109096;1273;22514;-75
2023/10/19 03:16:07;;;;;;;6.70;4.80;;;;;;;3.38;80.92;95807.71;109055;1273;22547;-75
2023/10/19 03:18:39;;;;;;;8.20;5.80;;;;;;;3.39;80.90;95798.39;109094;1266;22528;-75
2023/10/19 03:21:11;;;;;;;8.80;5.00;;;;;;;3.37;80.95;95797.27;109067;1272;22571;-76
2023/10/19 03:23:42;;;;;;;7.60;4.90;;;;;;;3.34;80.91;95793.63;109074;1272;22631;-75
2023/10/19 03:26:22;;;;;;;7.90;5.10;;;;;;;3.32;80.87;95793.41;109095;1272;25521;-75
2023/10/19 03:28:55;;;;;;;6.80;3.90;;;;;;;3.31;81.06;95782.73;109112;1272;22534;-75
2023/10/19 03:31:29;;;;;;;8.60;4.90;;;;;;;3.32;80.99;95775.80;109138;1273;22514;-75
2023/10/19 03:34:05;;;;;;;10.80;5.40;;;;;;;3.36;81.15;95767.39;109104;1273;23921;-75
2023/10/19 03:36:37;;;;;;;7.60;4.90;;;;;;;3.38;81.19;95763.54;109116;1269;22528;-75
2023/10/19 03:39:12;;;;;;;9.00;5.20;;;;;;;3.36;81.22;95755.65;109079;1272;22514;-75
2023/10/19 03:41:44;;;;;;;8.00;5.20;;;;;;;3.34;81.18;95750.30;109109;1249;22518;-75
2023/10/19 03:44:19;;;;;;;10.70;5.40;;;;;;;3.33;81.22;95739.13;109102;1273;22673;-75
2023/10/19 03:46:56;;;;;;;7.10;5.40;;;;;;;3.35;81.27;95740.98;109062;1273;24167;-76
2023/10/19 03:49:36;;;;;;;7.40;5.30;;;;;;;3.38;81.35;95735.56;109076;1269;22616;-75
2023/10/19 03:54:53;;;;;;;7.50;4.10;;;;;;;3.47;81.24;95725.38;109075;1269;23844;-76
2023/10/19 03:57:29;;;;;;;6.50;4.40;;;;;;;3.55;81.22;95729.63;109112;1273;22516;-75
2023/10/19 04:00:10;;;;;;;6.60;4.20;;;;;;;3.62;81.06;95726.92;109103;1265;23965;-75
2023/10/19 04:02:42;;;;;;;6.20;4.30;;;;;;;3.64;80.84;95712.93;109082;1273;22497;-76
2023/10/19 04:05:21;;;;;;;7.30;5.40;;;;;;;3.63;80.84;95709.10;109102;1266;22553;-76
2023/10/19 04:07:57;;;;;;;6.50;3.90;;;;;;;3.61;80.84;95702.44;109110;1269;22467;-76
2023/10/19 04:10:44;;;;;;;6.90;4.40;;;;;;;3.60;80.72;95700.97;109069;1273;23914;-75
2023/10/19 04:13:17;;;;;;;8.40;5.50;;;;;;;3.67;80.94;95696.02;109108;1272;22511;-75
2023/10/19 04:15:49;;;;;;;7.30;4.90;;;;;;;3.75;80.75;95689.44;109075;1266;22521;-76
2023/10/19 04:18:25;;;;;;;7.40;5.00;;;;;;;3.85;80.68;95695.45;109103;1270;22517;-76
2023/10/19 04:20:59;;;;;;;9.10;4.80;;;;;;;3.90;80.50;95686.70;109075;1272;25258;-76
2023/10/19 04:23:34;;;;;;;7.70;4.50;;;;;;;3.93;80.42;95682.41;109054;1270;24195;-76
2023/10/19 04:26:10;;;;;;;7.80;4.40;;;;;;;3.98;80.20;95675.88;109048;1272;22708;-75
2023/10/19 04:28:49;;;;;;;10.40;4.30;;;;;;;4.01;80.11;95673.52;109078;1265;22562;-75
2023/10/19 04:31:23;;;;;;;5.30;3.70;;;;;;;4.11;80.01;95679.21;109093;1273;24235;-76
2023/10/19 04:33:55;;;;;;;5.90;3.20;;;;;;;4.15;79.80;95680.52;109114;1273;22638;-76
2023/10/19 04:36:27;;;;;;;6.10;4.00;;;;;;;4.21;79.60;95672.50;109088;1272;25933;-76
2023/10/19 04:39:01;;;;;;;9.40;4.60;;;;;;;4.24;79.22;95672.42;109042;1273;22657;-75
2023/10/19 04:41:32;;;;;;;7.30;4.60;;;;;;;4.19;79.03;95672.81;109104;1269;22520;-76
2023/10/19 04:44:08;;;;;;;6.90;4.70;;;;;;;4.13;78.91;95677.69;109082;1273;22525;-76
2023/10/19 04:46:39;;;;;;;7.10;4.50;;;;;;;4.12;78.91;95677.48;109078;1266;22471;-76
2023/10/19 04:49:10;;;;;;;6.90;4.20;;;;;;;4.13;78.84;95671.77;109035;1273;25442;-75
2023/10/19 04:51:43;;;;;;;6.30;4.10;;;;;;;4.19;78.84;95664.48;109056;1260;22468;-76
2023/10/19 04:54:15;;;;;;;6.70;4.50;;;;;;;4.35;78.64;95669.22;109081;1272;22604;-76
2023/10/19 04:56:48;;;;;;;7.90;4.70;;;;;;;4.33;78.29;95655.56;109109;1270;22528;-76
2023/10/19 04:59:19;;;;;;;7.50;4.80;;;;;;;4.42;78.11;95664.19;109071;1272;22663;-75
2023/10/19 05:01:55;;;;;;;7.80;4.70;;;;;;;4.41;78.04;95664.30;109075;1266;22510;-75
2023/10/19 05:04:27;;;;;;;8.10;5.10;;;;;;;4.37;77.92;95661.30;109062;1273;22526;-76
2023/10/19 05:07:03;;;;;;;6.20;4.30;;;;;;;4.29;77.92;95659.52;109041;1266;22525;-76
2023/10/19 05:09:38;;;;;;;7.10;4.70;;;;;;;4.27;77.79;95656.20;109062;1273;23692;-76
2023/10/19 05:12:11;;;;;;;7.90;4.50;;;;;;;4.28;77.76;95657.36;109123;1273;22548;-76
2023/10/19 05:14:43;;;;;;;7.20;4.40;;;;;;;4.27;77.65;95657.61;109057;1273;22585;-76
2023/10/19 05:17:16;;;;;;;6.30;3.80;;;;;;;4.28;77.57;95661.77;109059;1266;22542;-75
2023/10/19 05:19:48;;;;;;;6.90;4.50;;;;;;;4.32;77.57;95652.27;109086;1273;22566;-75
2023/10/19 05:22:21;;;;;;;5.90;4.10;;;;;;;4.35;77.38;95643.75;109057;1273;22494;-76
2023/10/19 05:24:52;;;;;;;4.80;3.30;;;;;;;4.38;77.30;95640.47;109086;1273;23683;-75
2023/10/19 05:27:26;;;;;;;6.30;3.80;;;;;;;4.49;77.20;95644.86;109055;1273;23500;-75
2023/10/19 05:29:59;;;;;;;6.30;4.10;;;;;;;4.51;76.92;95639.95;109079;1272;24235;-76
2023/10/19 05:32:32;;;;;;;9.30;4.80;;;;;;;4.56;76.92;95643.30;109069;1273;23758;-76
2023/10/19 05:35:04;;;;;;;6.80;4.10;;;;;;;4.70;76.68;95646.48;109079;1273;23374;-76
2023/10/19 05:37:36;;;;;;;7.20;4.50;;;;;;;4.93;76.70;95640.21;109062;1273;22965;-75
2023/10/19 05:40:12;;;;;;;8.80;4.70;;;;;;;5.12;76.46;95647.58;109060;1272;22597;-76
2023/10/19 05:42:44;;;;;;;5.10;3.90;;;;;;;5.32;76.20;95650.98;109079;1269;24298;-76
2023/10/19 05:45:16;;;;;;;6.20;4.70;;;;;;;5.66;75.86;95650.48;109067;1261;22619;-76
2023/10/19 05:47:47;;;;;;;9.70;4.80;;;;;;;5.99;75.80;95651.23;109108;1273;25240;-76
2023/10/19 05:50:19;;;;;;;6.40;4.30;;;;;;;6.51;75.66;95647.45;109099;1273;22668;-76
2023/10/19 05:52:53;;;;;;;7.00;4.70;;;;;;;7.22;75.17;95639.48;109111;1273;22549;-76
2023/10/19 05:55:24;;;;;;;6.00;4.40;;;;;;;7.84;74.21;95630.68;109102;1273;23260;-76
2023/10/19 05:57:56;;;;;;;5.50;4.10;;;;;;;8.39;73.38;95627.84;109053;1273;22520;-76
2023/10/19 06:00:30;;;;;;;7.00;4.30;;;;;;;8.81;72.27;95629.08;109079;1266;24209;-76
2023/10/19 06:03:02;;;;;;;7.70;4.40;;;;;;;9.12;71.63;95621.88;109121;1272;23885;-76
2023/10/19 06:05:33;;;;;;;6.90;4.50;;;;;;;9.51;70.85;95620.90;109114;1267;22583;-76
2023/10/19 06:08:05;;;;;;;6.40;4.10;;;;;;;9.87;70.08;95617.47;109053;1266;23719;-76
2023/10/19 06:10:39;;;;;;;6.10;4.20;;;;;;;10.12;69.72;95608.20;109089;1272;22503;-76
2023/10/19 06:13:10;;;;;;;7.00;4.00;;;;;;;10.66;69.47;95600.34;109093;1266;25261;-76
2023/10/19 06:15:42;;;;;;;5.60;4.40;;;;;;;10.93;68.40;95593.19;109072;1266;22526;-76
2023/10/19 06:18:14;;;;;;;5.20;3.70;;;;;;;11.28;67.66;95594.33;109115;1266;22537;-76
2023/10/19 06:20:48;;;;;;;5.40;3.70;;;;;;;11.50;66.94;95596.46;108990;1273;22550;-76
2023/10/19 06:23:18;;;;;;;6.00;3.60;;;;;;;11.61;65.71;95599.37;109072;1273;22511;-76
2023/10/19 06:25:52;;;;;;;6.10;3.70;;;;;;;11.99;65.25;95598.39;109031;1273;22521;-76
2023/10/19 06:28:28;;;;;;;6.20;4.20;;;;;;;12.15;63.78;95599.06;109018;1269;23665;-76
2023/10/19 06:31:02;;;;;;;5.90;3.80;;;;;;;12.31;63.18;95599.81;109064;1266;22554;-76
2023/10/19 06:33:34;;;;;;;5.60;4.30;;;;;;;12.43;62.31;95590.42;109116;1272;22509;-76
2023/10/19 06:36:06;;;;;;;5.70;3.70;;;;;;;12.58;61.92;95591.12;109074;1269;22525;-76
2023/10/19 06:38:37;;;;;;;5.70;4.30;;;;;;;12.31;60.64;95583.12;109064;1265;22606;-76
2023/10/19 06:41:20;;;;;;;6.30;4.00;;;;;;;12.21;60.50;95575.15;109044;1273;23292;-76
2023/10/19 06:43:53;;;;;;;6.80;4.30;;;;;;;11.90;60.50;95576.55;109098;1272;22523;-76
2023/10/19 06:46:24;;;;;;;8.40;4.40;;;;;;;11.70;60.20;95575.74;109062;1273;22539;-77
2023/10/19 06:49:00;;;;;;;6.20;4.40;;;;;;;11.37;60.17;95569.45;109087;1272;22767;-76
2023/10/19 06:51:33;;;;;;;5.70;4.20;;;;;;;11.53;60.33;95564.38;109092;1273;22635;-77
2023/10/19 06:54:07;;;;;;;6.00;4.10;;;;;;;12.07;59.99;95559.90;109085;1270;25413;-77
2023/10/19 06:56:39;;;;;;;5.50;4.10;;;;;;;12.83;59.69;95551.59;109069;1273;22526;-77
2023/10/19 06:59:10;;;;;;;6.60;4.50;;;;;;;13.48;58.67;95551.52;109009;1250;22526;-77
2023/10/19 07:01:41;;;;;;;5.50;3.50;;;;;;;13.75;57.58;95542.48;109081;1269;23938;-77
2023/10/19 07:04:12;;;;;;;4.70;3.80;;;;;;;13.15;55.42;95541.54;109033;1265;22542;-77
2023/10/19 07:06:44;;;;;;;5.10;3.90;;;;;;;12.89;56.08;95541.87;109055;1273;25439;-77
2023/10/19 07:09:18;;;;;;;4.70;3.70;;;;;;;13.45;56.11;95533.30;109057;1273;23820;-77
2023/10/19 07:11:53;;;;;;;5.00;3.50;;;;;;;13.95;56.27;95532.96;109043;1250;22518;-77
2023/10/19 07:14:24;;;;;;;5.50;3.90;;;;;;;14.64;55.86;95530.23;109132;1272;22656;-77
2023/10/19 07:16:55;;;;;;;4.70;3.60;;;;;;;15.03;54.99;95523.55;109090;1266;25443;-77
2023/10/19 07:19:29;;;;;;;4.60;3.60;;;;;;;15.55;54.71;95524.83;109085;1272;22581;-77
2023/10/19 07:22:04;;;;;;;6.60;3.40;;;;;;;16.20;53.96;95527.63;109079;1273;25231;-77
2023/10/19 07:24:37;;;;;;;6.40;3.90;;;;;;;16.56;53.21;95525.70;109088;1272;22532;-77
2023/10/19 07:27:18;;;;;;;5.40;3.30;;;;;;;16.72;52.52;95518.87;109060;1273;23833;-77
2023/10/19 07:29:55;;;;;;;6.60;4.50;;;;;;;16.76;51.89;95516.96;109013;1273;23566;-77
2023/10/19 07:32:28;;;;;;;9.50;6.20;;;;;;;16.29;51.21;95517.01;109078;1273;22790;-77
2023/10/19 07:35:00;;;;;;;10.80;8.00;;;;;;;15.67;51.09;95510.61;109022;1269;23964;-77
2023/10/19 07:37:35;;;;;;;11.50;9.30;;;;;;;15.37;51.53;95502.91;109072;1273;22524;-77
2023/10/19 07:40:13;;;;;;;14.70;10.70;;;;;;;15.31;51.79;95504.77;109052;1272;22598;-77
2023/10/19 07:42:46;;;;;;;15.70;11.40;;;;;;;15.21;51.85;95500.92;109044;1268;22638;-77
2023/10/19 07:45:21;;;;;;;15.20;11.90;;;;;;;15.18;51.88;95492.79;109071;1273;22549;-77
2023/10/19 07:47:53;;;;;;;17.30;13.40;;;;;;;15.04;51.88;95495.91;109031;1265;22472;-77
2023/10/19 07:50:26;;;;;;;21.20;17.80;;;;;;;14.74;51.63;95496.17;109057;1272;25443;-77
2023/10/19 07:52:58;;;;;;;19.70;15.10;;;;;;;14.84;52.21;95488.20;109002;1266;22553;-77
2023/10/19 07:55:34;;;;;;;15.80;12.80;;;;;;;15.28;52.03;95492.16;109086;1266;22522;-77
2023/10/19 07:58:06;;;;;;;16.50;12.90;;;;;;;15.57;51.60;95483.73;109097;1273;24218;-77
2023/10/19 08:00:38;;;;;;;14.00;11.40;;;;;;;16.05;52.05;95470.58;109059;1269;22555;-77
2023/10/19 08:03:10;;;;;;;13.40;10.90;;;;;;;16.85;51.41;95464.83;109034;1265;22473;-77
2023/10/19 08:05:43;;;;;;;12.70;11.00;;;;;;;17.17;50.94;95467.86;109046;1272;22477;-77
2023/10/19 08:08:15;;;;;;;10.30;8.40;;;;;;;17.07;50.90;95469.94;109076;1269;22674;-77
2023/10/19 08:10:47;;;;;;;13.60;10.40;;;;;;;16.55;50.77;95466.89;109034;1273;23811;-77
2023/10/19 08:13:18;;;;;;;10.50;8.40;;;;;;;16.43;51.39;95468.38;109103;1272;22507;-77
2023/10/19 08:15:50;;;;;;;11.40;9.20;;;;;;;16.04;51.04;95470.41;109076;1273;25204;-77
2023/10/19 08:18:24;;;;;;;12.30;9.00;;;;;;;15.64;51.40;95477.40;109033;1273;25381;-77
2023/10/19 08:20:55;;;;;;;10.60;7.80;;;;;;;15.21;51.41;95468.98;109059;1269;22581;-77
2023/10/19 08:23:27;;;;;;;10.70;8.80;;;;;;;14.56;50.99;95465.80;109057;1266;22810;-77
2023/10/19 08:26:06;;;;;;;11.50;8.80;;;;;;;14.11;52.14;95458.77;106751;1266;3106385;-77
2023/10/19 08:28:37;;;;;;;10.70;8.60;;;;;;;14.15;52.97;95455.48;109097;1266;22510;-77
2023/10/19 08:31:12;;;;;;;11.50;8.10;;;;;;;14.39;53.11;95449.88;109017;1273;22579;-77
2023/10/19 08:33:43;;;;;;;13.40;8.60;;;;;;;14.71;53.31;95449.98;109051;1273;22511;-77
2023/10/19 08:36:21;;;;;;;10.50;8.10;;;;;;;14.70;53.21;95448.16;109070;1273;24481;-77
2023/10/19 08:38:53;;;;;;;10.30;8.00;;;;;;;14.44;53.06;95440.15;109044;1270;22480;-77
2023/10/19 08:41:25;;;;;;;9.30;6.20;;;;;;;14.29;52.59;95430.50;109075;1273;24399;-77
2023/10/19 08:43:59;;;;;;;8.00;6.10;;;;;;;13.98;52.63;95428.08;109057;1269;22562;-77
2023/10/19 08:46:31;;;;;;;7.90;5.80;;;;;;;13.82;53.14;95428.07;109051;1269;23743;-77
2023/10/19 08:49:05;;;;;;;8.20;5.70;;;;;;;13.90;53.84;95428.79;109049;1273;23207;-77
2023/10/19 08:51:37;;;;;;;9.20;6.00;;;;;;;13.87;53.73;95425.93;109098;1272;24183;-77
2023/10/19 08:54:10;;;;;;;7.00;5.50;;;;;;;13.80;54.29;95420.99;109094;1266;22517;-77
2023/10/19 08:56:42;;;;;;;8.50;6.00;;;;;;;13.78;54.04;95414.90;109046;1266;22504;-77
2023/10/19 08:59:15;;;;;;;7.20;5.30;;;;;;;13.42;53.61;95410.70;109013;1268;53051;-77
2023/10/19 09:01:46;;;;;;;10.40;6.10;;;;;;;13.17;54.10;95410.77;109018;1272;24220;-77
2023/10/19 09:04:17;;;;;;;7.70;5.70;;;;;;;13.11;54.54;95408.02;109058;1271;22569;-77
2023/10/19 09:06:49;;;;;;;10.50;6.00;;;;;;;13.25;55.26;95407.72;109056;1266;22791;-77
2023/10/19 09:09:21;;;;;;;8.40;5.50;;;;;;;13.51;55.64;95406.35;109050;1273;25466;-77
2023/10/19 09:11:53;;;;;;;7.50;5.40;;;;;;;13.73;55.71;95401.55;109046;1265;22505;-77
2023/10/19 09:14:35;;;;;;;9.20;5.60;;;;;;;13.80;55.20;95402.09;109065;1269;22528;-77
2023/10/19 09:17:07;;;;;;;7.90;5.30;;;;;;;13.75;55.25;95400.02;109118;1266;22528;-77
2023/10/19 09:19:43;;;;;;;7.20;5.00;;;;;;;13.69;55.17;95394.65;109100;1273;23139;-77
2023/10/19 09:22:22;;;;;;;7.40;5.10;;;;;;;13.59;55.30;95397.19;109062;1266;22517;-77
2023/10/19 09:24:55;;;;;;;8.10;5.40;;;;;;;13.62;55.62;95391.73;109095;1272;22454;-77
2023/10/19 09:27:26;;;;;;;8.30;5.90;;;;;;;13.66;55.80;95380.88;109063;1269;22492;-77
2023/10/19 09:30:03;;;;;;;7.50;6.70;;;;;;;13.67;56.03;95378.73;109074;1272;23679;-77
2023/10/19 09:32:34;;;;;;;9.30;6.10;;;;;;;13.47;56.18;95390.69;109027;1273;24052;-77
2023/10/19 09:35:08;;;;;;;8.40;6.40;;;;;;;13.20;56.60;95397.52;109049;1273;22993;-77
2023/10/19 09:37:40;;;;;;;8.70;6.00;;;;;;;13.15;57.10;95400.81;109128;1273;25418;-77
2023/10/19 09:40:15;;;;;;;9.40;5.90;;;;;;;13.15;56.85;95402.85;109095;1269;23865;-77
2023/10/19 09:42:48;;;;;;;9.80;6.20;;;;;;;12.99;57.03;95388.96;109020;1266;22555;-77
2023/10/19 09:45:24;;;;;;;12.70;7.20;;;;;;;12.82;57.50;95388.23;109088;1266;25887;-77
2023/10/19 09:47:56;;;;;;;7.70;6.20;;;;;;;12.73;57.93;95386.01;109065;1270;22545;-78
2023/10/19 09:50:30;;;;;;;9.40;6.80;;;;;;;12.52;58.12;95376.83;109069;1269;24757;-77
2023/10/19 09:53:03;;;;;;;8.20;6.30;;;;;;;12.45;58.61;95375.40;109055;1273;23910;-77
2023/10/19 09:55:39;;;;;;;9.60;6.60;;;;;;;12.40;58.95;95381.15;109080;1273;25323;-77
2023/10/19 09:58:20;;;;;;;8.80;6.80;;;;;;;12.35;59.55;95388.90;109106;1273;22582;-77
2023/10/19 10:00:57;;;;;;;13.00;9.10;;;;;;;12.23;60.14;95390.02;109065;1271;39852;-77
2023/10/19 10:03:51;;;;;;;13.60;9.90;;;;;;;11.96;60.50;95386.53;109090;1266;22522;-77
2023/10/19 10:06:52;;;;;;;14.50;9.90;;;;;;;11.77;61.44;95390.15;109068;1273;22509;-77
2023/10/19 10:09:29;;;;;;;15.90;11.40;;;;;;;11.55;61.98;95389.20;109067;1272;22573;-77
2023/10/19 10:12:19;;;;;;;17.40;13.10;;;;;;;11.44;62.72;95378.54;109098;1272;22633;-77
2023/10/19 10:14:59;;;;;;;;;;;;;;;11.36;63.00;95369.71;109145;1272;22589;-77
2023/10/19 10:17:33;;;;;;;21.20;15.20;;;;;;;11.28;63.53;95362.02;109048;1266;22757;-77
2023/10/19 10:20:34;;;;;;;20.50;15.50;;;;;;;11.18;63.76;95362.36;109085;1265;23135;-77
2023/10/19 10:23:26;;;;;;;18.30;14.10;;;;;;;11.03;63.87;95363.66;109055;1272;22488;-77
2023/10/19 10:26:00;;;;;;;17.90;13.50;;;;;;;10.80;64.18;95353.41;109031;1273;22547;-77
2023/10/19 10:28:31;;;;;;;19.30;13.10;;;;;;;10.67;64.54;95343.30;109136;1272;25332;-77
2023/10/19 10:31:15;;;;;;;16.20;11.10;;;;;;;10.63;64.95;95342.36;109059;1266;22529;-77
2023/10/19 10:33:48;;;;;;;16.20;10.90;;;;;;;10.58;65.01;95343.73;109101;1272;22528;-77
2023/10/19 10:36:20;;;;;;;18.30;11.30;;;;;;;10.50;65.01;95332.20;109067;1273;22510;-77
2023/10/19 10:38:52;;;;;;;12.90;9.00;;;;;;;10.42;64.96;95322.15;109075;1266;23525;-77
2023/10/19 10:41:27;;;;;;;14.30;9.20;;;;;;;10.40;65.01;95313.29;109031;1272;22637;-77
2023/10/19 10:44:01;;;;;;;12.60;8.60;;;;;;;10.39;65.02;95309.38;109131;1273;24305;-77
2023/10/19 10:46:33;;;;;;;12.00;8.50;;;;;;;10.42;65.06;95314.15;109116;1272;22559;-75
2023/10/19 10:49:11;;;;;;;12.20;7.70;;;;;;;10.43;65.15;95312.81;109062;1273;22502;-76
2023/10/19 10:51:44;;;;;;;11.90;8.90;;;;;;;10.42;65.21;95310.23;109114;1273;24180;-77
2023/10/19 10:54:15;;;;;;;14.60;10.40;;;;;;;10.41;65.43;95299.27;109088;1270;22528;-77
2023/10/19 10:56:47;;;;;;;12.80;9.60;;;;;;;10.39;65.55;95298.41;109029;1272;22518;-77
2023/10/19 10:59:21;;;;;;;14.40;10.50;;;;;;;10.39;65.77;95291.28;109059;1265;24002;-76
2023/10/19 11:01:53;;;;;;;13.30;8.80;;;;;;;10.36;65.97;95296.33;109070;1254;22511;-77
2023/10/19 11:04:24;;;;;;;12.50;8.30;;;;;;;10.37;66.26;95300.23;109084;1272;23663;-77
2023/10/19 11:06:56;;;;;;;12.20;8.80;;;;;;;10.38;66.44;95295.39;109084;1273;22564;-77
2023/10/19 11:09:44;;;;;;;11.70;8.60;;;;;;;10.40;66.85;95296.17;109071;1272;22728;-77
2023/10/19 11:12:19;;;;;;;11.90;8.70;;;;;;;10.43;67.02;95283.61;109068;1272;25417;-77
2023/10/19 11:14:59;;;;;;;13.30;8.80;;;;;;;10.45;67.32;95279.94;109103;1250;25421;-77
2023/10/19 11:17:32;;;;;;;13.80;8.20;;;;;;;10.49;67.48;95271.98;109096;1273;22619;-77
2023/10/19 11:20:04;;;;;;;11.40;8.30;;;;;;;10.51;67.76;95264.59;109063;1272;22514;-76
2023/10/19 11:22:51;;;;;;;12.30;8.90;;;;;;;10.55;67.95;95262.88;109078;1273;22566;-77
2023/10/19 11:25:24;;;;;;;11.30;8.60;;;;;;;10.59;68.33;95262.48;109095;1272;22533;-77
2023/10/19 11:27:55;;;;;;;11.90;8.30;;;;;;;10.63;68.35;95254.79;109054;1273;22541;-77
2023/10/19 11:30:29;;;;;;;11.90;8.00;;;;;;;10.67;68.48;95245.33;109044;1273;23789;-77
2023/10/19 11:33:05;;;;;;;12.60;8.90;;;;;;;10.72;68.55;95239.55;109026;1269;22536;-77
2023/10/19 11:35:37;;;;;;;9.10;7.00;;;;;;;10.76;68.52;95238.27;109089;1266;23865;-77
2023/10/19 11:38:09;;;;;;;12.10;8.60;;;;;;;10.78;68.60;95235.51;109079;1269;24213;-76
2023/10/19 11:40:41;;;;;;;13.70;8.80;;;;;;;10.81;68.72;95231.21;109046;1273;22466;-77
2023/10/19 11:43:15;;;;;;;11.50;8.60;;;;;;;10.83;68.93;95225.83;109035;1271;24412;-77
2023/10/19 11:45:46;;;;;;;13.20;9.10;;;;;;;10.85;68.94;95223.45;109037;1272;22568;-77
2023/10/19 11:48:18;;;;;;;12.50;8.20;;;;;;;10.87;69.06;95215.73;109095;1269;22571;-77
2023/10/19 11:50:53;;;;;;;12.10;8.50;;;;;;;10.91;69.28;95213.48;109074;1273;22568;-77
2023/10/19 11:53:24;;;;;;;12.30;8.10;;;;;;;10.96;69.29;95207.58;109046;1272;22528;-77
2023/10/19 11:55:58;;;;;;;11.30;8.10;;;;;;;11.00;69.35;95206.21;109029;1273;23773;-77
2023/10/19 11:58:34;;;;;;;12.60;7.90;;;;;;;11.04;69.74;95205.10;109053;1273;22521;-77
2023/10/19 12:01:09;;;;;;;10.30;7.40;;;;;;;11.08;69.83;95197.60;109071;1273;22473;-77
2023/10/19 12:03:41;;;;;;;9.80;7.10;;;;;;;11.14;70.13;95193.66;109104;1249;25390;-76